sensor_id;sensor_type;location;lat;lon;timestamp;P1;durP1;ratioP1;P2;durP2;ratioP2
7171;SDS011;3627;46.544;14.944;2023-09-19T00:01:39;16.50;;;10.07;;
7171;SDS011;3627;46.544;14.944;2023-09-19T00:04:07;18.73;;;9.35;;
7171;SDS011;3627;46.544;14.944;2023-09-19T00:06:35;19.88;;;9.15;;
7171;SDS011;3627;46.544;14.944;2023-09-19T00:09:01;18.05;;;9.35;;
7171;SDS011;3627;46.544;14.944;2023-09-19T00:11:28;18.08;;;9.45;;
7171;SDS011;3627;46.544;14.944;2023-09-19T00:13:58;20.30;;;9.35;;
7171;SDS011;3627;46.544;14.944;2023-09-19T00:16:30;19.35;;;10.38;;
7171;SDS011;3627;46.544;14.944;2023-09-19T00:19:14;17.50;;;9.23;;
7171;SDS011;3627;46.544;14.944;2023-09-19T00:24:22;15.35;;;8.77;;
7171;SDS011;3627;46.544;14.944;2023-09-19T00:26:49;18.73;;;8.70;;
7171;SDS011;3627;46.544;14.944;2023-09-19T00:29:15;13.77;;;8.77;;
7171;SDS011;3627;46.544;14.944;2023-09-19T00:31:43;19.10;;;8.85;;
7171;SDS011;3627;46.544;14.944;2023-09-19T00:34:09;17.23;;;8.98;;
7171;SDS011;3627;46.544;14.944;2023-09-19T00:36:37;15.65;;;8.45;;
7171;SDS011;3627;46.544;14.944;2023-09-19T00:39:04;14.30;;;8.13;;
7171;SDS011;3627;46.544;14.944;2023-09-19T00:41:31;14.77;;;8.20;;
7171;SDS011;3627;46.544;14.944;2023-09-19T00:43:59;18.15;;;8.63;;
7171;SDS011;3627;46.544;14.944;2023-09-19T00:46:27;13.27;;;8.90;;
7171;SDS011;3627;46.544;14.944;2023-09-19T00:48:53;16.90;;;8.80;;
7171;SDS011;3627;46.544;14.944;2023-09-19T00:51:20;13.18;;;8.55;;
7171;SDS011;3627;46.544;14.944;2023-09-19T00:53:47;14.00;;;7.88;;
7171;SDS011;3627;46.544;14.944;2023-09-19T00:56:14;14.73;;;8.95;;
7171;SDS011;3627;46.544;14.944;2023-09-19T00:58:43;19.25;;;8.82;;
7171;SDS011;3627;46.544;14.944;2023-09-19T01:01:09;15.25;;;7.97;;
7171;SDS011;3627;46.544;14.944;2023-09-19T01:03:36;19.17;;;8.63;;
7171;SDS011;3627;46.544;14.944;2023-09-19T01:06:03;20.00;;;8.10;;
7171;SDS011;3627;46.544;14.944;2023-09-19T01:08:30;13.63;;;9.27;;
7171;SDS011;3627;46.544;14.944;2023-09-19T01:10:59;16.58;;;9.00;;
7171;SDS011;3627;46.544;14.944;2023-09-19T01:13:29;21.98;;;9.00;;
7171;SDS011;3627;46.544;14.944;2023-09-19T01:15:59;16.75;;;8.48;;
7171;SDS011;3627;46.544;14.944;2023-09-19T01:18:33;13.70;;;8.23;;
7171;SDS011;3627;46.544;14.944;2023-09-19T01:21:03;16.73;;;8.40;;
7171;SDS011;3627;46.544;14.944;2023-09-19T01:23:35;15.10;;;9.02;;
7171;SDS011;3627;46.544;14.944;2023-09-19T01:26:08;15.73;;;8.18;;
7171;SDS011;3627;46.544;14.944;2023-09-19T01:28:43;15.07;;;7.80;;
7171;SDS011;3627;46.544;14.944;2023-09-19T01:31:13;15.50;;;7.97;;
7171;SDS011;3627;46.544;14.944;2023-09-19T01:33:56;15.85;;;7.72;;
7171;SDS011;3627;46.544;14.944;2023-09-19T01:36:24;11.48;;;7.05;;
7171;SDS011;3627;46.544;14.944;2023-09-19T01:38:50;14.00;;;7.57;;
7171;SDS011;3627;46.544;14.944;2023-09-19T01:41:17;14.15;;;7.20;;
7171;SDS011;3627;46.544;14.944;2023-09-19T01:43:47;10.23;;;7.82;;
7171;SDS011;3627;46.544;14.944;2023-09-19T01:46:18;13.63;;;8.40;;
7171;SDS011;3627;46.544;14.944;2023-09-19T01:48:49;18.08;;;8.27;;
7171;SDS011;3627;46.544;14.944;2023-09-19T01:51:20;14.70;;;7.85;;
7171;SDS011;3627;46.544;14.944;2023-09-19T01:53:50;15.07;;;7.68;;
7171;SDS011;3627;46.544;14.944;2023-09-19T01:56:20;13.98;;;8.00;;
7171;SDS011;3627;46.544;14.944;2023-09-19T01:58:49;15.98;;;8.75;;
7171;SDS011;3627;46.544;14.944;2023-09-19T02:01:20;15.52;;;8.05;;
7171;SDS011;3627;46.544;14.944;2023-09-19T02:03:48;18.42;;;9.00;;
7171;SDS011;3627;46.544;14.944;2023-09-19T02:06:14;16.02;;;8.40;;
7171;SDS011;3627;46.544;14.944;2023-09-19T02:08:43;15.35;;;8.38;;
7171;SDS011;3627;46.544;14.944;2023-09-19T02:11:10;14.93;;;7.57;;
7171;SDS011;3627;46.544;14.944;2023-09-19T02:13:35;10.68;;;6.05;;
7171;SDS011;3627;46.544;14.944;2023-09-19T02:16:02;8.35;;;4.15;;
7171;SDS011;3627;46.544;14.944;2023-09-19T02:18:30;5.80;;;3.60;;
7171;SDS011;3627;46.544;14.944;2023-09-19T02:21:00;5.45;;;2.47;;
7171;SDS011;3627;46.544;14.944;2023-09-19T02:23:26;4.45;;;2.70;;
7171;SDS011;3627;46.544;14.944;2023-09-19T02:25:52;5.18;;;2.40;;
7171;SDS011;3627;46.544;14.944;2023-09-19T02:28:19;3.25;;;2.10;;
7171;SDS011;3627;46.544;14.944;2023-09-19T02:30:47;4.70;;;2.08;;
7171;SDS011;3627;46.544;14.944;2023-09-19T02:33:14;2.58;;;2.33;;
7171;SDS011;3627;46.544;14.944;2023-09-19T02:35:43;3.88;;;2.20;;
7171;SDS011;3627;46.544;14.944;2023-09-19T02:38:10;3.90;;;2.00;;
7171;SDS011;3627;46.544;14.944;2023-09-19T02:40:37;6.28;;;2.00;;
7171;SDS011;3627;46.544;14.944;2023-09-19T02:43:04;1.85;;;1.75;;
7171;SDS011;3627;46.544;14.944;2023-09-19T02:45:31;1.88;;;1.77;;
7171;SDS011;3627;46.544;14.944;2023-09-19T02:47:57;4.47;;;2.08;;
7171;SDS011;3627;46.544;14.944;2023-09-19T02:50:24;2.58;;;1.70;;
7171;SDS011;3627;46.544;14.944;2023-09-19T02:52:52;2.72;;;1.73;;
7171;SDS011;3627;46.544;14.944;2023-09-19T02:55:18;1.95;;;1.77;;
7171;SDS011;3627;46.544;14.944;2023-09-19T02:57:47;4.05;;;1.85;;
7171;SDS011;3627;46.544;14.944;2023-09-19T03:00:14;1.90;;;1.80;;
7171;SDS011;3627;46.544;14.944;2023-09-19T03:02:41;2.15;;;1.67;;
7171;SDS011;3627;46.544;14.944;2023-09-19T03:05:08;3.17;;;1.75;;
7171;SDS011;3627;46.544;14.944;2023-09-19T03:07:36;1.92;;;1.77;;
7171;SDS011;3627;46.544;14.944;2023-09-19T03:10:05;2.50;;;1.83;;
7171;SDS011;3627;46.544;14.944;2023-09-19T03:12:32;2.42;;;1.70;;
7171;SDS011;3627;46.544;14.944;2023-09-19T03:14:59;4.03;;;1.70;;
7171;SDS011;3627;46.544;14.944;2023-09-19T03:17:26;2.15;;;1.70;;
7171;SDS011;3627;46.544;14.944;2023-09-19T03:19:52;3.65;;;1.92;;
7171;SDS011;3627;46.544;14.944;2023-09-19T03:22:18;1.75;;;1.65;;
7171;SDS011;3627;46.544;14.944;2023-09-19T03:24:46;2.35;;;1.73;;
7171;SDS011;3627;46.544;14.944;2023-09-19T03:27:13;1.80;;;1.70;;
7171;SDS011;3627;46.544;14.944;2023-09-19T03:29:41;3.83;;;1.73;;
7171;SDS011;3627;46.544;14.944;2023-09-19T03:32:07;1.92;;;1.73;;
7171;SDS011;3627;46.544;14.944;2023-09-19T03:34:35;3.30;;;2.10;;
7171;SDS011;3627;46.544;14.944;2023-09-19T03:37:02;1.92;;;1.73;;
7171;SDS011;3627;46.544;14.944;2023-09-19T03:39:28;3.15;;;1.83;;
7171;SDS011;3627;46.544;14.944;2023-09-19T03:41:55;3.15;;;2.20;;
7171;SDS011;3627;46.544;14.944;2023-09-19T03:44:23;2.20;;;1.80;;
7171;SDS011;3627;46.544;14.944;2023-09-19T03:46:49;1.83;;;1.60;;
7171;SDS011;3627;46.544;14.944;2023-09-19T03:49:15;1.60;;;1.50;;
7171;SDS011;3627;46.544;14.944;2023-09-19T03:51:42;2.33;;;1.90;;
7171;SDS011;3627;46.544;14.944;2023-09-19T03:54:08;2.83;;;1.90;;
7171;SDS011;3627;46.544;14.944;2023-09-19T03:56:35;4.15;;;2.17;;
7171;SDS011;3627;46.544;14.944;2023-09-19T03:59:01;2.35;;;2.05;;
7171;SDS011;3627;46.544;14.944;2023-09-19T04:01:29;5.90;;;2.20;;
7171;SDS011;3627;46.544;14.944;2023-09-19T04:03:57;2.20;;;2.00;;
7171;SDS011;3627;46.544;14.944;2023-09-19T04:06:23;3.50;;;1.83;;
7171;SDS011;3627;46.544;14.944;2023-09-19T04:08:49;1.77;;;1.67;;
7171;SDS011;3627;46.544;14.944;2023-09-19T04:11:16;1.90;;;1.70;;
7171;SDS011;3627;46.544;14.944;2023-09-19T04:13:42;2.05;;;1.85;;
7171;SDS011;3627;46.544;14.944;2023-09-19T04:16:08;2.95;;;1.85;;
7171;SDS011;3627;46.544;14.944;2023-09-19T04:18:36;2.10;;;1.90;;
7171;SDS011;3627;46.544;14.944;2023-09-19T04:21:04;3.67;;;2.03;;
7171;SDS011;3627;46.544;14.944;2023-09-19T04:23:31;1.75;;;1.60;;
7171;SDS011;3627;46.544;14.944;2023-09-19T04:25:58;2.15;;;1.80;;
7171;SDS011;3627;46.544;14.944;2023-09-19T04:28:24;3.13;;;1.98;;
7171;SDS011;3627;46.544;14.944;2023-09-19T04:30:52;2.13;;;1.70;;
7171;SDS011;3627;46.544;14.944;2023-09-19T04:33:19;2.28;;;1.73;;
7171;SDS011;3627;46.544;14.944;2023-09-19T04:35:46;2.55;;;1.92;;
7171;SDS011;3627;46.544;14.944;2023-09-19T04:38:14;2.40;;;1.80;;
7171;SDS011;3627;46.544;14.944;2023-09-19T04:40:41;2.08;;;1.60;;
7171;SDS011;3627;46.544;14.944;2023-09-19T04:43:07;4.75;;;2.35;;
7171;SDS011;3627;46.544;14.944;2023-09-19T04:45:33;3.45;;;2.28;;
7171;SDS011;3627;46.544;14.944;2023-09-19T04:48:00;4.45;;;3.10;;
7171;SDS011;3627;46.544;14.944;2023-09-19T04:50:27;3.25;;;2.50;;
7171;SDS011;3627;46.544;14.944;2023-09-19T04:52:56;2.55;;;1.92;;
7171;SDS011;3627;46.544;14.944;2023-09-19T04:55:22;2.78;;;2.40;;
7171;SDS011;3627;46.544;14.944;2023-09-19T04:57:49;1.92;;;1.73;;
7171;SDS011;3627;46.544;14.944;2023-09-19T05:00:16;4.05;;;1.98;;
7171;SDS011;3627;46.544;14.944;2023-09-19T05:02:44;2.58;;;1.75;;
7171;SDS011;3627;46.544;14.944;2023-09-19T05:05:11;1.83;;;1.63;;
7171;SDS011;3627;46.544;14.944;2023-09-19T05:07:40;6.35;;;1.75;;
7171;SDS011;3627;46.544;14.944;2023-09-19T05:10:08;5.30;;;1.92;;
7171;SDS011;3627;46.544;14.944;2023-09-19T05:12:37;3.03;;;2.60;;
7171;SDS011;3627;46.544;14.944;2023-09-19T05:15:03;2.90;;;2.55;;
7171;SDS011;3627;46.544;14.944;2023-09-19T05:17:30;3.80;;;2.58;;
7171;SDS011;3627;46.544;14.944;2023-09-19T05:19:56;4.43;;;2.20;;
7171;SDS011;3627;46.544;14.944;2023-09-19T05:22:23;2.45;;;2.25;;
7171;SDS011;3627;46.544;14.944;2023-09-19T05:24:49;3.33;;;2.70;;
7171;SDS011;3627;46.544;14.944;2023-09-19T05:27:17;3.88;;;2.80;;
7171;SDS011;3627;46.544;14.944;2023-09-19T05:29:44;4.72;;;3.58;;
7171;SDS011;3627;46.544;14.944;2023-09-19T05:32:10;5.93;;;2.60;;
7171;SDS011;3627;46.544;14.944;2023-09-19T05:34:37;4.55;;;1.80;;
7171;SDS011;3627;46.544;14.944;2023-09-19T05:37:04;2.13;;;1.92;;
7171;SDS011;3627;46.544;14.944;2023-09-19T05:39:32;2.42;;;1.88;;
7171;SDS011;3627;46.544;14.944;2023-09-19T05:41:58;3.53;;;2.05;;
7171;SDS011;3627;46.544;14.944;2023-09-19T05:44:26;4.50;;;2.63;;
7171;SDS011;3627;46.544;14.944;2023-09-19T05:46:53;9.38;;;3.20;;
7171;SDS011;3627;46.544;14.944;2023-09-19T05:49:21;2.28;;;2.08;;
7171;SDS011;3627;46.544;14.944;2023-09-19T05:51:49;4.35;;;2.03;;
7171;SDS011;3627;46.544;14.944;2023-09-19T05:54:19;2.85;;;2.00;;
7171;SDS011;3627;46.544;14.944;2023-09-19T05:56:45;2.55;;;1.98;;
7171;SDS011;3627;46.544;14.944;2023-09-19T05:59:12;4.22;;;1.73;;
7171;SDS011;3627;46.544;14.944;2023-09-19T06:01:42;2.17;;;1.85;;
7171;SDS011;3627;46.544;14.944;2023-09-19T06:04:08;2.25;;;1.95;;
7171;SDS011;3627;46.544;14.944;2023-09-19T06:06:34;1.88;;;1.77;;
7171;SDS011;3627;46.544;14.944;2023-09-19T06:09:04;3.22;;;2.38;;
7171;SDS011;3627;46.544;14.944;2023-09-19T06:11:30;2.25;;;1.98;;
7171;SDS011;3627;46.544;14.944;2023-09-19T06:13:59;4.82;;;2.47;;
7171;SDS011;3627;46.544;14.944;2023-09-19T06:16:27;2.75;;;2.17;;
7171;SDS011;3627;46.544;14.944;2023-09-19T06:18:55;2.25;;;1.80;;
7171;SDS011;3627;46.544;14.944;2023-09-19T06:21:21;3.40;;;2.08;;
7171;SDS011;3627;46.544;14.944;2023-09-19T06:23:48;2.88;;;2.08;;
7171;SDS011;3627;46.544;14.944;2023-09-19T06:26:14;3.25;;;2.08;;
7171;SDS011;3627;46.544;14.944;2023-09-19T06:28:41;3.25;;;2.00;;
7171;SDS011;3627;46.544;14.944;2023-09-19T06:31:07;2.45;;;1.85;;
7171;SDS011;3627;46.544;14.944;2023-09-19T06:33:35;5.53;;;2.35;;
7171;SDS011;3627;46.544;14.944;2023-09-19T06:36:04;4.20;;;2.55;;
7171;SDS011;3627;46.544;14.944;2023-09-19T06:38:31;3.40;;;2.00;;
7171;SDS011;3627;46.544;14.944;2023-09-19T06:40:59;2.60;;;2.28;;
7171;SDS011;3627;46.544;14.944;2023-09-19T06:43:26;3.17;;;2.42;;
7171;SDS011;3627;46.544;14.944;2023-09-19T06:45:51;2.63;;;1.88;;
7171;SDS011;3627;46.544;14.944;2023-09-19T06:48:19;2.60;;;2.28;;
7171;SDS011;3627;46.544;14.944;2023-09-19T06:50:46;2.83;;;2.50;;
7171;SDS011;3627;46.544;14.944;2023-09-19T06:53:14;6.70;;;2.83;;
7171;SDS011;3627;46.544;14.944;2023-09-19T06:55:41;2.22;;;2.03;;
7171;SDS011;3627;46.544;14.944;2023-09-19T06:58:09;3.40;;;2.55;;
7171;SDS011;3627;46.544;14.944;2023-09-19T07:00:35;3.70;;;2.00;;
7171;SDS011;3627;46.544;14.944;2023-09-19T07:03:03;2.95;;;2.25;;
7171;SDS011;3627;46.544;14.944;2023-09-19T07:05:33;3.97;;;2.40;;
7171;SDS011;3627;46.544;14.944;2023-09-19T07:08:02;3.67;;;2.10;;
7171;SDS011;3627;46.544;14.944;2023-09-19T07:10:31;3.83;;;2.20;;
7171;SDS011;3627;46.544;14.944;2023-09-19T07:12:58;8.13;;;3.55;;
7171;SDS011;3627;46.544;14.944;2023-09-19T07:15:25;3.67;;;2.22;;
7171;SDS011;3627;46.544;14.944;2023-09-19T07:17:51;3.28;;;1.85;;
7171;SDS011;3627;46.544;14.944;2023-09-19T07:20:19;2.22;;;1.80;;
7171;SDS011;3627;46.544;14.944;2023-09-19T07:22:45;2.05;;;1.67;;
7171;SDS011;3627;46.544;14.944;2023-09-19T07:25:12;2.25;;;1.60;;
7171;SDS011;3627;46.544;14.944;2023-09-19T07:27:40;1.70;;;1.50;;
7171;SDS011;3627;46.544;14.944;2023-09-19T07:30:07;2.00;;;1.65;;
7171;SDS011;3627;46.544;14.944;2023-09-19T07:32:34;2.30;;;1.67;;
7171;SDS011;3627;46.544;14.944;2023-09-19T07:35:01;2.90;;;1.70;;
7171;SDS011;3627;46.544;14.944;2023-09-19T07:37:28;2.30;;;2.03;;
7171;SDS011;3627;46.544;14.944;2023-09-19T07:39:56;2.75;;;1.83;;
7171;SDS011;3627;46.544;14.944;2023-09-19T07:42:22;2.45;;;2.10;;
7171;SDS011;3627;46.544;14.944;2023-09-19T07:44:50;4.10;;;2.03;;
7171;SDS011;3627;46.544;14.944;2023-09-19T07:47:18;3.03;;;2.00;;
7171;SDS011;3627;46.544;14.944;2023-09-19T07:49:46;2.08;;;1.88;;
7171;SDS011;3627;46.544;14.944;2023-09-19T07:52:12;2.55;;;1.65;;
7171;SDS011;3627;46.544;14.944;2023-09-19T07:54:39;1.98;;;1.80;;
7171;SDS011;3627;46.544;14.944;2023-09-19T07:57:06;3.00;;;1.90;;
7171;SDS011;3627;46.544;14.944;2023-09-19T07:59:33;3.42;;;1.80;;
7171;SDS011;3627;46.544;14.944;2023-09-19T08:02:00;2.75;;;1.63;;
7171;SDS011;3627;46.544;14.944;2023-09-19T08:04:29;2.08;;;1.80;;
7171;SDS011;3627;46.544;14.944;2023-09-19T08:06:58;3.25;;;1.50;;
7171;SDS011;3627;46.544;14.944;2023-09-19T08:09:25;2.47;;;1.90;;
7171;SDS011;3627;46.544;14.944;2023-09-19T08:11:52;3.92;;;2.15;;
7171;SDS011;3627;46.544;14.944;2023-09-19T08:14:19;3.10;;;1.90;;
7171;SDS011;3627;46.544;14.944;2023-09-19T08:16:45;2.92;;;1.40;;
7171;SDS011;3627;46.544;14.944;2023-09-19T08:19:14;1.50;;;1.40;;
7171;SDS011;3627;46.544;14.944;2023-09-19T08:21:40;1.95;;;1.85;;
7171;SDS011;3627;46.544;14.944;2023-09-19T08:24:10;1.48;;;1.20;;
7171;SDS011;3627;46.544;14.944;2023-09-19T08:26:37;1.20;;;1.10;;
7171;SDS011;3627;46.544;14.944;2023-09-19T08:29:03;1.88;;;1.25;;
7171;SDS011;3627;46.544;14.944;2023-09-19T08:31:32;3.97;;;1.50;;
7171;SDS011;3627;46.544;14.944;2023-09-19T08:33:58;1.55;;;1.00;;
7171;SDS011;3627;46.544;14.944;2023-09-19T08:36:26;1.60;;;1.13;;
7171;SDS011;3627;46.544;14.944;2023-09-19T08:38:53;1.10;;;1.02;;
7171;SDS011;3627;46.544;14.944;2023-09-19T08:41:19;1.55;;;0.90;;
7171;SDS011;3627;46.544;14.944;2023-09-19T08:43:45;1.13;;;0.85;;
7171;SDS011;3627;46.544;14.944;2023-09-19T08:46:14;1.40;;;1.10;;
7171;SDS011;3627;46.544;14.944;2023-09-19T08:48:44;1.15;;;1.05;;
7171;SDS011;3627;46.544;14.944;2023-09-19T08:51:16;1.55;;;1.00;;
7171;SDS011;3627;46.544;14.944;2023-09-19T08:53:47;1.15;;;1.00;;
7171;SDS011;3627;46.544;14.944;2023-09-19T08:56:17;2.00;;;1.60;;
7171;SDS011;3627;46.544;14.944;2023-09-19T08:58:44;1.70;;;1.20;;
7171;SDS011;3627;46.544;14.944;2023-09-19T09:01:13;1.42;;;1.10;;
7171;SDS011;3627;46.544;14.944;2023-09-19T09:03:40;1.30;;;1.20;;
7171;SDS011;3627;46.544;14.944;2023-09-19T09:06:11;3.38;;;1.20;;
7171;SDS011;3627;46.544;14.944;2023-09-19T09:08:40;2.50;;;1.27;;
7171;SDS011;3627;46.544;14.944;2023-09-19T09:11:08;1.92;;;1.27;;
7171;SDS011;3627;46.544;14.944;2023-09-19T09:13:35;2.10;;;1.10;;
7171;SDS011;3627;46.544;14.944;2023-09-19T09:16:02;4.78;;;1.50;;
7171;SDS011;3627;46.544;14.944;2023-09-19T09:18:28;1.45;;;1.20;;
7171;SDS011;3627;46.544;14.944;2023-09-19T09:20:55;3.08;;;1.60;;
7171;SDS011;3627;46.544;14.944;2023-09-19T09:23:22;1.40;;;1.17;;
7171;SDS011;3627;46.544;14.944;2023-09-19T09:25:50;1.50;;;1.27;;
7171;SDS011;3627;46.544;14.944;2023-09-19T09:28:21;1.50;;;1.25;;
7171;SDS011;3627;46.544;14.944;2023-09-19T09:30:47;0.90;;;0.90;;
7171;SDS011;3627;46.544;14.944;2023-09-19T09:33:14;1.00;;;1.00;;
7171;SDS011;3627;46.544;14.944;2023-09-19T09:35:47;2.55;;;1.00;;
7171;SDS011;3627;46.544;14.944;2023-09-19T09:38:17;1.10;;;1.00;;
7171;SDS011;3627;46.544;14.944;2023-09-19T09:40:47;1.30;;;1.20;;
7171;SDS011;3627;46.544;14.944;2023-09-19T09:43:31;2.08;;;1.27;;
7171;SDS011;3627;46.544;14.944;2023-09-19T09:46:08;2.33;;;1.20;;
7171;SDS011;3627;46.544;14.944;2023-09-19T09:48:58;1.95;;;1.50;;
7171;SDS011;3627;46.544;14.944;2023-09-19T09:51:41;1.80;;;1.20;;
7171;SDS011;3627;46.544;14.944;2023-09-19T09:54:09;2.97;;;1.30;;
7171;SDS011;3627;46.544;14.944;2023-09-19T09:56:39;2.35;;;1.30;;
7171;SDS011;3627;46.544;14.944;2023-09-19T09:59:19;1.17;;;1.08;;
7171;SDS011;3627;46.544;14.944;2023-09-19T10:01:48;1.17;;;0.98;;
7171;SDS011;3627;46.544;14.944;2023-09-19T10:04:21;2.78;;;1.63;;
7171;SDS011;3627;46.544;14.944;2023-09-19T10:06:53;2.28;;;1.52;;
7171;SDS011;3627;46.544;14.944;2023-09-19T10:09:19;1.73;;;1.08;;
7171;SDS011;3627;46.544;14.944;2023-09-19T10:11:46;1.42;;;1.33;;
7171;SDS011;3627;46.544;14.944;2023-09-19T10:14:20;1.42;;;1.23;;
7171;SDS011;3627;46.544;14.944;2023-09-19T10:16:49;2.40;;;1.10;;
7171;SDS011;3627;46.544;14.944;2023-09-19T10:19:20;1.30;;;1.20;;
7171;SDS011;3627;46.544;14.944;2023-09-19T10:21:49;1.85;;;1.17;;
7171;SDS011;3627;46.544;14.944;2023-09-19T10:24:16;1.40;;;1.30;;
7171;SDS011;3627;46.544;14.944;2023-09-19T10:26:44;1.85;;;1.17;;
7171;SDS011;3627;46.544;14.944;2023-09-19T10:29:11;1.52;;;1.10;;
7171;SDS011;3627;46.544;14.944;2023-09-19T10:31:40;1.02;;;0.90;;
7171;SDS011;3627;46.544;14.944;2023-09-19T10:34:12;0.98;;;0.98;;
7171;SDS011;3627;46.544;14.944;2023-09-19T10:36:40;2.25;;;1.33;;
7171;SDS011;3627;46.544;14.944;2023-09-19T10:39:10;3.03;;;1.27;;
7171;SDS011;3627;46.544;14.944;2023-09-19T10:41:37;2.20;;;1.35;;
7171;SDS011;3627;46.544;14.944;2023-09-19T10:44:03;1.20;;;1.10;;
7171;SDS011;3627;46.544;14.944;2023-09-19T10:46:31;1.80;;;1.40;;
7171;SDS011;3627;46.544;14.944;2023-09-19T10:48:59;1.52;;;1.20;;
7171;SDS011;3627;46.544;14.944;2023-09-19T10:51:27;2.38;;;1.23;;
7171;SDS011;3627;46.544;14.944;2023-09-19T10:53:58;1.98;;;1.27;;
7171;SDS011;3627;46.544;14.944;2023-09-19T10:56:29;1.30;;;1.13;;
7171;SDS011;3627;46.544;14.944;2023-09-19T10:59:06;1.83;;;1.30;;
7171;SDS011;3627;46.544;14.944;2023-09-19T11:01:41;2.33;;;1.30;;
7171;SDS011;3627;46.544;14.944;2023-09-19T11:04:27;1.50;;;1.40;;
7171;SDS011;3627;46.544;14.944;2023-09-19T11:07:01;1.40;;;1.30;;
7171;SDS011;3627;46.544;14.944;2023-09-19T11:09:42;1.35;;;1.25;;
7171;SDS011;3627;46.544;14.944;2023-09-19T11:12:09;3.33;;;1.30;;
7171;SDS011;3627;46.544;14.944;2023-09-19T11:14:41;1.38;;;1.27;;
7171;SDS011;3627;46.544;14.944;2023-09-19T11:23:18;2.58;;;1.58;;
7171;SDS011;3627;46.544;14.944;2023-09-19T11:25:48;1.70;;;1.60;;
7171;SDS011;3627;46.544;14.944;2023-09-19T11:28:27;1.50;;;1.40;;
7171;SDS011;3627;46.544;14.944;2023-09-19T11:30:55;3.35;;;1.70;;
7171;SDS011;3627;46.544;14.944;2023-09-19T11:33:24;1.58;;;1.48;;
7171;SDS011;3627;46.544;14.944;2023-09-19T11:36:00;2.80;;;1.38;;
7171;SDS011;3627;46.544;14.944;2023-09-19T11:44:30;2.50;;;1.67;;
7171;SDS011;3627;46.544;14.944;2023-09-19T11:46:51;1.33;;;1.13;;
7171;SDS011;3627;46.544;14.944;2023-09-19T11:49:18;3.13;;;1.55;;
7171;SDS011;3627;46.544;14.944;2023-09-19T11:51:48;3.55;;;1.63;;
7171;SDS011;3627;46.544;14.944;2023-09-19T11:54:16;1.67;;;1.20;;
7171;SDS011;3627;46.544;14.944;2023-09-19T11:56:44;2.13;;;1.60;;
7171;SDS011;3627;46.544;14.944;2023-09-19T11:59:13;1.80;;;1.50;;
7171;SDS011;3627;46.544;14.944;2023-09-19T12:01:50;2.25;;;1.85;;
7171;SDS011;3627;46.544;14.944;2023-09-19T12:04:19;3.35;;;2.10;;
7171;SDS011;3627;46.544;14.944;2023-09-19T12:06:56;1.50;;;1.40;;
7171;SDS011;3627;46.544;14.944;2023-09-19T12:09:23;2.15;;;1.50;;
7171;SDS011;3627;46.544;14.944;2023-09-19T12:11:50;3.38;;;1.77;;
7171;SDS011;3627;46.544;14.944;2023-09-19T12:14:22;3.28;;;1.80;;
7171;SDS011;3627;46.544;14.944;2023-09-19T12:16:54;2.22;;;1.55;;
7171;SDS011;3627;46.544;14.944;2023-09-19T12:19:21;2.58;;;1.70;;
7171;SDS011;3627;46.544;14.944;2023-09-19T12:21:54;2.00;;;1.80;;
7171;SDS011;3627;46.544;14.944;2023-09-19T12:24:21;1.60;;;1.50;;
7171;SDS011;3627;46.544;14.944;2023-09-19T12:26:48;1.85;;;1.70;;
7171;SDS011;3627;46.544;14.944;2023-09-19T12:29:17;2.17;;;1.65;;
7171;SDS011;3627;46.544;14.944;2023-09-19T12:31:49;1.95;;;1.52;;
7171;SDS011;3627;46.544;14.944;2023-09-19T12:34:17;3.05;;;1.80;;
7171;SDS011;3627;46.544;14.944;2023-09-19T12:36:44;1.90;;;1.60;;
7171;SDS011;3627;46.544;14.944;2023-09-19T12:39:11;1.95;;;1.70;;
7171;SDS011;3627;46.544;14.944;2023-09-19T12:41:39;1.90;;;1.60;;
7171;SDS011;3627;46.544;14.944;2023-09-19T12:44:05;3.60;;;1.85;;
7171;SDS011;3627;46.544;14.944;2023-09-19T12:46:34;2.33;;;1.73;;
7171;SDS011;3627;46.544;14.944;2023-09-19T12:49:17;1.90;;;1.42;;
7171;SDS011;3627;46.544;14.944;2023-09-19T12:51:45;2.20;;;1.40;;
7171;SDS011;3627;46.544;14.944;2023-09-19T12:54:12;1.90;;;1.52;;
7171;SDS011;3627;46.544;14.944;2023-09-19T12:56:40;1.95;;;1.60;;
7171;SDS011;3627;46.544;14.944;2023-09-19T12:59:09;1.60;;;1.50;;
7171;SDS011;3627;46.544;14.944;2023-09-19T13:01:38;2.25;;;1.70;;
7171;SDS011;3627;46.544;14.944;2023-09-19T13:04:14;2.42;;;1.52;;
7171;SDS011;3627;46.544;14.944;2023-09-19T13:06:44;2.90;;;1.80;;
7171;SDS011;3627;46.544;14.944;2023-09-19T13:09:13;2.25;;;1.60;;
7171;SDS011;3627;46.544;14.944;2023-09-19T13:11:40;2.75;;;1.60;;
7171;SDS011;3627;46.544;14.944;2023-09-19T13:14:13;1.95;;;1.40;;
7171;SDS011;3627;46.544;14.944;2023-09-19T13:16:52;3.40;;;1.45;;
7171;SDS011;3627;46.544;14.944;2023-09-19T13:22:01;2.08;;;1.60;;
7171;SDS011;3627;46.544;14.944;2023-09-19T13:24:28;2.33;;;1.33;;
7171;SDS011;3627;46.544;14.944;2023-09-19T13:26:55;2.90;;;2.03;;
7171;SDS011;3627;46.544;14.944;2023-09-19T13:29:21;3.22;;;1.80;;
7171;SDS011;3627;46.544;14.944;2023-09-19T13:31:48;2.28;;;1.80;;
7171;SDS011;3627;46.544;14.944;2023-09-19T13:34:14;2.05;;;1.75;;
7171;SDS011;3627;46.544;14.944;2023-09-19T13:36:42;2.53;;;1.60;;
7171;SDS011;3627;46.544;14.944;2023-09-19T13:39:10;3.03;;;1.58;;
7171;SDS011;3627;46.544;14.944;2023-09-19T13:41:38;1.70;;;1.60;;
7171;SDS011;3627;46.544;14.944;2023-09-19T13:44:04;4.97;;;1.60;;
7171;SDS011;3627;46.544;14.944;2023-09-19T13:46:31;2.13;;;1.92;;
7171;SDS011;3627;46.544;14.944;2023-09-19T13:48:58;4.68;;;1.90;;
7171;SDS011;3627;46.544;14.944;2023-09-19T13:51:25;4.80;;;2.30;;
7171;SDS011;3627;46.544;14.944;2023-09-19T13:53:51;7.20;;;2.45;;
7171;SDS011;3627;46.544;14.944;2023-09-19T13:56:20;5.57;;;2.67;;
7171;SDS011;3627;46.544;14.944;2023-09-19T13:58:46;5.35;;;2.80;;
7171;SDS011;3627;46.544;14.944;2023-09-19T14:01:13;6.07;;;3.20;;
7171;SDS011;3627;46.544;14.944;2023-09-19T14:03:39;3.75;;;2.55;;
7171;SDS011;3627;46.544;14.944;2023-09-19T14:06:06;9.73;;;3.75;;
7171;SDS011;3627;46.544;14.944;2023-09-19T14:08:32;8.18;;;4.60;;
7171;SDS011;3627;46.544;14.944;2023-09-19T14:11:01;2.67;;;2.20;;
7171;SDS011;3627;46.544;14.944;2023-09-19T14:13:32;3.95;;;2.17;;
7171;SDS011;3627;46.544;14.944;2023-09-19T14:16:02;3.63;;;2.33;;
7171;SDS011;3627;46.544;14.944;2023-09-19T14:18:29;5.72;;;2.22;;
7171;SDS011;3627;46.544;14.944;2023-09-19T14:20:55;3.28;;;1.90;;
7171;SDS011;3627;46.544;14.944;2023-09-19T14:23:22;6.00;;;2.15;;
7171;SDS011;3627;46.544;14.944;2023-09-19T14:25:48;2.92;;;2.20;;
7171;SDS011;3627;46.544;14.944;2023-09-19T14:28:15;2.70;;;1.63;;
7171;SDS011;3627;46.544;14.944;2023-09-19T14:30:42;2.13;;;1.70;;
7171;SDS011;3627;46.544;14.944;2023-09-19T14:33:09;3.10;;;1.63;;
7171;SDS011;3627;46.544;14.944;2023-09-19T14:35:36;2.58;;;1.73;;
7171;SDS011;3627;46.544;14.944;2023-09-19T14:38:18;2.13;;;1.48;;
7171;SDS011;3627;46.544;14.944;2023-09-19T14:40:59;1.80;;;1.70;;
7171;SDS011;3627;46.544;14.944;2023-09-19T14:43:26;4.40;;;1.75;;
7171;SDS011;3627;46.544;14.944;2023-09-19T14:45:55;7.05;;;2.65;;
7171;SDS011;3627;46.544;14.944;2023-09-19T14:48:22;3.45;;;1.95;;
7171;SDS011;3627;46.544;14.944;2023-09-19T14:50:51;3.13;;;2.08;;
7171;SDS011;3627;46.544;14.944;2023-09-19T14:53:17;3.67;;;1.98;;
7171;SDS011;3627;46.544;14.944;2023-09-19T14:55:43;4.10;;;2.20;;
7171;SDS011;3627;46.544;14.944;2023-09-19T14:58:12;2.15;;;1.77;;
7171;SDS011;3627;46.544;14.944;2023-09-19T15:00:39;5.05;;;2.40;;
7171;SDS011;3627;46.544;14.944;2023-09-19T15:03:06;4.20;;;1.92;;
7171;SDS011;3627;46.544;14.944;2023-09-19T15:05:33;4.30;;;1.90;;
7171;SDS011;3627;46.544;14.944;2023-09-19T15:07:59;3.47;;;2.50;;
7171;SDS011;3627;46.544;14.944;2023-09-19T15:10:27;2.55;;;2.10;;
7171;SDS011;3627;46.544;14.944;2023-09-19T15:12:54;4.03;;;1.90;;
7171;SDS011;3627;46.544;14.944;2023-09-19T15:15:21;2.97;;;1.83;;
7171;SDS011;3627;46.544;14.944;2023-09-19T15:17:47;4.22;;;2.13;;
7171;SDS011;3627;46.544;14.944;2023-09-19T15:20:15;4.03;;;2.80;;
7171;SDS011;3627;46.544;14.944;2023-09-19T15:22:42;7.70;;;5.90;;
7171;SDS011;3627;46.544;14.944;2023-09-19T15:25:09;4.78;;;3.50;;